Time;durP1;ratioP1;P1;durP2;ratioP2;P2;SDS_P1;SDS_P2;PMS_P1;PMS_P2;Temp;Humidity;BMP_temperature;BMP_pressure;BME280_temperature;BME280_humidity;BME280_pressure;Samples;Min_cycle;Max_cycle;Signal;HPM_P1;HPM_P2
2022/06/28 00:01:21;;;;;;;5.25;4.75;;;16.60;99.90;;;;;;5041167;28;20037;-71
2022/06/28 00:03:47;;;;;;;6.75;4.75;;;16.60;99.90;;;;;;5039492;28;20025;-71
2022/06/28 00:06:13;;;;;;;4.90;4.43;;;16.60;99.90;;;;;;5041418;28;20082;-71
2022/06/28 00:08:39;;;;;;;5.43;4.10;;;16.60;99.90;;;;;;5042982;28;20033;-70
2022/06/28 00:11:05;;;;;;;5.50;4.40;;;16.50;99.90;;;;;;5040545;28;20034;-70
2022/06/28 00:13:31;;;;;;;7.97;4.40;;;16.60;99.90;;;;;;5043889;28;20059;-70
2022/06/28 00:16:06;;;;;;;11.77;5.00;;;16.50;99.90;;;;;;5042470;28;20017;-70
2022/06/28 00:18:37;;;;;;;5.57;4.45;;;16.50;99.90;;;;;;5041202;28;20018;-69
2022/06/28 00:21:06;;;;;;;6.47;4.20;;;16.50;99.90;;;;;;5040954;28;20048;-70
2022/06/28 00:23:33;;;;;;;4.82;3.88;;;16.50;99.90;;;;;;5044108;28;20022;-70
2022/06/28 00:25:59;;;;;;;5.78;4.10;;;16.50;99.90;;;;;;5040954;28;20079;-70
2022/06/28 00:28:25;;;;;;;5.20;4.03;;;16.50;99.90;;;;;;5043204;28;20079;-71
2022/06/28 00:30:51;;;;;;;6.70;4.00;;;16.50;99.90;;;;;;5041983;28;20513;-70
2022/06/28 00:33:17;;;;;;;5.88;4.03;;;16.50;99.90;;;;;;5044168;28;20551;-70
2022/06/28 00:35:42;;;;;;;6.15;3.58;;;16.40;99.90;;;;;;5041596;28;20049;-70
2022/06/28 00:38:08;;;;;;;5.18;3.25;;;16.40;99.90;;;;;;5042014;28;20033;-70
2022/06/28 00:40:46;;;;;;;4.53;3.72;;;16.40;99.90;;;;;;5041042;28;20025;-70
2022/06/28 00:43:12;;;;;;;5.43;3.45;;;16.40;99.90;;;;;;5042023;28;20025;-71
2022/06/28 00:45:38;;;;;;;10.25;3.50;;;16.40;99.90;;;;;;5040768;28;20042;-70
2022/06/28 00:48:04;;;;;;;5.05;3.22;;;16.40;99.90;;;;;;5040694;28;20037;-70
2022/06/28 00:50:34;;;;;;;4.55;3.58;;;16.40;99.90;;;;;;5042160;28;20091;-71
2022/06/28 00:53:01;;;;;;;5.25;3.30;;;16.30;99.90;;;;;;5042779;28;20029;-72
2022/06/28 00:55:27;;;;;;;4.63;3.03;;;16.20;99.90;;;;;;5042540;28;20013;-72
2022/06/28 00:57:53;;;;;;;6.03;3.65;;;16.30;99.90;;;;;;5042842;28;20108;-72
2022/06/28 01:00:19;;;;;;;5.45;4.00;;;16.20;99.90;;;;;;5044837;28;20729;-72
2022/06/28 01:02:44;;;;;;;6.13;3.78;;;16.20;99.90;;;;;;5039895;28;20362;-72
2022/06/28 01:05:10;;;;;;;6.88;3.70;;;16.20;99.90;;;;;;5041546;28;20072;-72
2022/06/28 01:07:36;;;;;;;6.05;3.33;;;16.20;99.90;;;;;;5042096;28;20064;-71
2022/06/28 01:10:02;;;;;;;5.25;3.40;;;16.20;99.90;;;;;;5042058;28;20017;-72
2022/06/28 01:12:27;;;;;;;4.70;3.20;;;16.20;99.90;;;;;;5042602;28;20026;-72
2022/06/28 01:14:53;;;;;;;5.03;3.25;;;16.20;99.90;;;;;;5043053;28;20109;-72
2022/06/28 01:17:19;;;;;;;4.35;2.90;;;16.20;99.90;;;;;;5040950;28;20051;-71
2022/06/28 01:19:44;;;;;;;7.20;3.65;;;16.20;99.90;;;;;;5041045;28;20033;-70
2022/06/28 01:22:11;;;;;;;6.57;3.40;;;16.10;99.90;;;;;;5039725;28;20018;-72
2022/06/28 01:24:37;;;;;;;3.92;2.72;;;16.10;99.90;;;;;;5035490;28;20390;-72
2022/06/28 01:27:04;;;;;;;5.55;3.17;;;16.10;99.90;;;;;;5035559;28;20583;-71
2022/06/28 01:29:31;;;;;;;4.03;2.28;;;16.10;99.90;;;;;;5035614;28;20018;-71
2022/06/28 01:31:56;;;;;;;4.63;2.40;;;16.10;99.90;;;;;;5040979;28;20166;-71
2022/06/28 01:34:23;;;;;;;5.05;2.47;;;16.00;99.90;;;;;;5043511;28;20487;-70
2022/06/28 01:36:49;;;;;;;5.60;2.20;;;16.00;99.90;;;;;;5043159;28;20642;-71
2022/06/28 01:39:14;;;;;;;3.55;2.10;;;16.00;99.90;;;;;;5055612;28;20028;-72
2022/06/28 01:41:40;;;;;;;5.35;2.50;;;16.00;99.90;;;;;;5055477;28;20067;-72
2022/06/28 01:44:08;;;;;;;3.75;2.53;;;16.00;99.90;;;;;;5036489;28;20025;-72
2022/06/28 01:46:38;;;;;;;2.90;2.60;;;16.00;99.90;;;;;;5054157;28;20155;-72
2022/06/28 01:49:06;;;;;;;8.65;3.20;;;16.00;99.90;;;;;;5054259;28;20098;-71
2022/06/28 01:51:32;;;;;;;9.68;3.10;;;16.00;99.90;;;;;;5053767;28;20477;-71
2022/06/28 01:53:57;;;;;;;7.85;2.75;;;16.00;99.90;;;;;;5047528;28;20056;-72
2022/06/28 01:56:24;;;;;;;6.15;2.67;;;15.90;99.90;;;;;;5034807;28;20478;-72
2022/06/28 01:58:50;;;;;;;5.72;2.20;;;16.00;99.90;;;;;;5035150;28;20057;-72
2022/06/28 02:01:15;;;;;;;5.97;1.90;;;15.90;99.90;;;;;;5034675;28;20048;-72
2022/06/28 02:03:41;;;;;;;5.38;2.30;;;15.90;99.90;;;;;;5035215;28;20026;-71
2022/06/28 02:06:08;;;;;;;3.85;2.00;;;15.80;99.90;;;;;;5035696;28;20045;-72
2022/06/28 02:08:35;;;;;;;5.65;2.47;;;15.70;99.90;;;;;;5054301;28;20112;-71
2022/06/28 02:11:03;;;;;;;7.32;2.45;;;15.70;99.90;;;;;;5054703;28;20470;-71
2022/06/28 02:13:28;;;;;;;4.28;2.17;;;15.70;99.90;;;;;;5054776;28;20021;-71
2022/06/28 02:15:55;;;;;;;8.00;2.60;;;15.70;99.90;;;;;;5052661;28;20087;-71
2022/06/28 02:18:21;;;;;;;5.70;2.33;;;15.70;99.90;;;;;;5054693;28;20071;-71
2022/06/28 02:20:47;;;;;;;5.65;2.05;;;15.70;99.90;;;;;;5054032;28;20025;-71
2022/06/28 02:23:13;;;;;;;4.15;2.28;;;15.70;99.90;;;;;;5049302;28;20036;-71
2022/06/28 02:25:38;;;;;;;6.88;2.45;;;15.60;99.90;;;;;;5041035;28;20101;-71
2022/06/28 02:28:04;;;;;;;6.28;2.25;;;15.60;99.90;;;;;;5038413;28;20441;-71
2022/06/28 02:30:30;;;;;;;6.22;2.30;;;15.70;99.90;;;;;;5034187;28;20041;-72
2022/06/28 02:32:56;;;;;;;9.98;2.72;;;15.70;99.90;;;;;;5034607;28;20041;-71
2022/06/28 02:40:50;;;;;;;10.70;2.30;;;15.70;99.90;;;;;;5053601;28;20539;-71
2022/06/28 02:43:15;;;;;;;4.45;2.70;;;15.60;99.90;;;;;;5056872;28;20036;-71
2022/06/28 02:45:42;;;;;;;3.72;2.25;;;15.60;99.90;;;;;;5051686;28;20039;-71
2022/06/28 02:48:08;;;;;;;4.38;2.58;;;15.60;99.90;;;;;;5053919;28;20048;-71
2022/06/28 02:50:34;;;;;;;7.35;3.00;;;15.60;99.90;;;;;;5054282;28;20029;-71
2022/06/28 02:53:00;;;;;;;4.00;2.40;;;15.60;99.90;;;;;;5053771;28;20044;-72
2022/06/28 02:55:27;;;;;;;12.30;2.70;;;15.60;99.90;;;;;;5053774;28;20021;-72
2022/06/28 02:57:52;;;;;;;4.53;2.55;;;15.50;99.90;;;;;;5053856;28;20033;-71
2022/06/28 03:00:19;;;;;;;3.42;2.35;;;15.50;99.90;;;;;;5043582;28;20124;-72
2022/06/28 03:02:46;;;;;;;4.53;2.28;;;15.50;99.90;;;;;;5043460;28;20481;-71
2022/06/28 03:05:15;;;;;;;4.95;2.50;;;15.50;99.90;;;;;;5033932;28;20622;-71
2022/06/28 03:07:41;;;;;;;4.75;2.70;;;15.40;99.90;;;;;;5043645;28;20037;-71
2022/06/28 03:10:08;;;;;;;3.05;2.50;;;15.50;99.90;;;;;;5053567;28;20056;-72
2022/06/28 03:12:34;;;;;;;3.40;2.50;;;15.40;99.90;;;;;;5053444;28;20039;-71
2022/06/28 03:15:00;;;;;;;2.83;2.17;;;15.40;99.90;;;;;;5052826;28;20029;-71
2022/06/28 03:17:26;;;;;;;6.78;2.72;;;15.40;99.90;;;;;;5050665;28;20036;-71
2022/06/28 03:19:52;;;;;;;7.60;2.42;;;15.40;99.90;;;;;;5052355;28;20591;-71
2022/06/28 03:22:18;;;;;;;6.07;2.33;;;15.30;99.90;;;;;;5051996;28;20107;-71
2022/06/28 03:24:44;;;;;;;7.15;2.67;;;15.30;99.90;;;;;;5052857;28;20025;-71
2022/06/28 03:27:10;;;;;;;10.93;2.55;;;15.30;99.90;;;;;;5033037;28;20372;-71
2022/06/28 03:29:35;;;;;;;3.85;2.22;;;15.30;99.90;;;;;;5033603;28;20028;-71
2022/06/28 03:32:01;;;;;;;8.48;2.97;;;15.20;99.90;;;;;;5040551;28;20020;-71
2022/06/28 03:34:27;;;;;;;3.35;2.90;;;15.30;99.90;;;;;;5052338;28;20424;-71
2022/06/28 03:36:52;;;;;;;6.00;2.80;;;15.20;99.90;;;;;;5052218;28;20476;-71
2022/06/28 03:39:18;;;;;;;11.65;3.05;;;15.20;99.90;;;;;;5053510;28;20473;-71
2022/06/28 03:41:44;;;;;;;7.53;2.80;;;15.20;99.90;;;;;;5052874;28;20028;-71
2022/06/28 03:44:10;;;;;;;7.03;2.78;;;15.20;99.90;;;;;;5052083;28;20189;-71
2022/06/28 03:46:36;;;;;;;6.95;2.92;;;15.20;99.90;;;;;;5052720;28;20091;-72
2022/06/28 03:49:02;;;;;;;5.72;2.95;;;15.20;99.90;;;;;;5035378;28;20044;-71
2022/06/28 03:51:27;;;;;;;6.18;2.83;;;15.10;99.90;;;;;;5032805;28;20075;-72
2022/06/28 03:53:53;;;;;;;7.53;2.67;;;15.10;99.90;;;;;;5041705;28;20032;-71
2022/06/28 03:56:19;;;;;;;6.13;2.70;;;15.10;99.90;;;;;;5052678;28;20548;-72
2022/06/28 03:58:44;;;;;;;5.05;2.70;;;15.10;99.90;;;;;;5052874;28;20043;-72
2022/06/28 04:01:10;;;;;;;9.52;3.17;;;15.10;99.90;;;;;;5052806;28;20064;-72
2022/06/28 04:03:36;;;;;;;9.10;2.97;;;15.00;99.90;;;;;;5052570;28;20512;-71
2022/06/28 04:06:03;;;;;;;7.45;2.97;;;15.00;99.90;;;;;;5052425;28;20096;-72
2022/06/28 04:08:29;;;;;;;5.82;3.25;;;15.00;99.90;;;;;;5046618;28;20037;-72
2022/06/28 04:13:41;;;;;;;6.90;2.78;;;14.90;99.90;;;;;;5050464;28;20552;-71
2022/06/28 04:16:06;;;;;;;4.85;2.95;;;14.90;99.90;;;;;;5052482;28;20147;-71
2022/06/28 04:18:32;;;;;;;6.90;3.42;;;14.90;99.90;;;;;;5033286;28;20064;-71
2022/06/28 04:20:59;;;;;;;4.53;3.25;;;14.90;99.90;;;;;;5032011;28;20022;-71
2022/06/28 04:23:24;;;;;;;6.70;3.10;;;14.90;99.90;;;;;;5032870;28;20032;-71
2022/06/28 04:25:50;;;;;;;4.60;3.10;;;14.90;99.90;;;;;;5032401;28;20105;-71
2022/06/28 04:28:16;;;;;;;5.45;3.08;;;15.00;99.90;;;;;;5040151;28;20433;-71
2022/06/28 04:30:42;;;;;;;6.25;3.03;;;14.90;99.90;;;;;;5051613;28;20098;-70
2022/06/28 04:33:08;;;;;;;7.35;3.55;;;14.90;99.90;;;;;;5055043;28;20052;-71
2022/06/28 04:35:34;;;;;;;7.13;3.67;;;14.80;99.90;;;;;;5052435;28;20523;-71
2022/06/28 04:38:01;;;;;;;9.43;4.10;;;14.80;99.90;;;;;;5051218;28;20055;-71
2022/06/28 04:40:27;;;;;;;7.28;4.18;;;14.80;99.90;;;;;;5051656;28;20351;-71
2022/06/28 04:42:53;;;;;;;10.93;4.03;;;14.90;99.90;;;;;;5045563;28;20033;-71
2022/06/28 04:45:19;;;;;;;4.32;3.90;;;14.90;99.90;;;;;;5042197;28;20037;-71
2022/06/28 04:47:45;;;;;;;8.13;3.20;;;14.90;99.90;;;;;;5052200;28;20541;-71
2022/06/28 04:50:11;;;;;;;7.85;3.92;;;14.90;99.90;;;;;;5052475;28;20021;-71
2022/06/28 04:52:36;;;;;;;7.78;4.40;;;14.90;99.90;;;;;;5056963;28;20031;-71
2022/06/28 04:55:03;;;;;;;4.95;3.75;;;14.90;99.90;;;;;;5052773;28;20108;-71
2022/06/28 04:57:29;;;;;;;7.82;4.43;;;14.90;99.90;;;;;;5055241;28;20548;-71
2022/06/28 04:59:55;;;;;;;10.88;3.92;;;15.00;99.90;;;;;;5054570;28;20469;-71
2022/06/28 05:02:21;;;;;;;8.50;4.35;;;15.00;99.90;;;;;;5049921;28;20033;-71
2022/06/28 05:04:46;;;;;;;8.43;4.60;;;15.00;99.90;;;;;;5055174;28;20032;-71
2022/06/28 05:07:12;;;;;;;11.00;4.75;;;15.00;99.90;;;;;;5055790;28;20033;-71
2022/06/28 05:09:38;;;;;;;5.90;3.38;;;15.00;99.90;;;;;;5055720;28;20481;-71
2022/06/28 05:12:04;;;;;;;7.72;4.05;;;15.10;99.90;;;;;;5058346;28;20025;-71
2022/06/28 05:14:30;;;;;;;10.10;4.15;;;15.10;99.90;;;;;;5052481;28;20112;-71
2022/06/28 05:16:55;;;;;;;7.45;3.28;;;15.10;99.90;;;;;;5055812;28;20099;-72
2022/06/28 05:19:21;;;;;;;6.95;3.78;;;15.10;99.90;;;;;;5055845;28;20025;-71
2022/06/28 05:21:47;;;;;;;7.38;3.55;;;15.10;99.90;;;;;;5056074;28;20053;-71
2022/06/28 05:24:12;;;;;;;6.03;4.32;;;15.10;99.90;;;;;;5041442;28;20057;-70
2022/06/28 05:26:38;;;;;;;6.80;3.45;;;15.10;99.90;;;;;;5035327;28;20022;-71
2022/06/28 05:29:04;;;;;;;10.88;4.22;;;15.20;99.90;;;;;;5035237;28;20045;-71
2022/06/28 05:31:30;;;;;;;12.30;4.22;;;15.20;99.90;;;;;;5038252;28;20048;-71
2022/06/28 05:33:55;;;;;;;5.97;3.40;;;15.20;99.90;;;;;;5055326;28;20071;-71
2022/06/28 05:36:21;;;;;;;10.13;4.20;;;15.20;99.90;;;;;;5051019;28;20056;-71
2022/06/28 05:38:47;;;;;;;11.90;4.35;;;15.20;99.90;;;;;;5035288;28;20028;-71
2022/06/28 05:41:13;;;;;;;7.82;3.85;;;15.20;99.90;;;;;;5041576;28;20032;-71
2022/06/28 05:43:39;;;;;;;6.75;3.60;;;15.30;99.90;;;;;;5050620;28;20020;-71
2022/06/28 05:46:05;;;;;;;7.47;3.47;;;15.30;99.90;;;;;;5054738;28;20044;-71
2022/06/28 05:48:31;;;;;;;5.85;3.28;;;15.30;99.90;;;;;;5054211;28;20123;-71
2022/06/28 05:50:56;;;;;;;10.20;3.13;;;15.30;99.90;;;;;;5054751;28;20024;-71
2022/06/28 05:53:22;;;;;;;9.65;3.38;;;15.40;99.90;;;;;;5054713;28;20025;-71
2022/06/28 05:55:48;;;;;;;6.70;2.75;;;15.40;99.90;;;;;;5054549;28;20032;-71
2022/06/28 05:58:14;;;;;;;7.68;3.95;;;15.30;99.90;;;;;;5056913;28;20054;-71
2022/06/28 06:00:39;;;;;;;9.40;2.58;;;15.40;99.90;;;;;;5054634;28;20032;-71
2022/06/28 06:03:06;;;;;;;9.35;2.90;;;15.40;99.90;;;;;;5052101;28;20059;-71
2022/06/28 06:05:32;;;;;;;5.82;2.92;;;15.40;99.90;;;;;;5034264;28;20018;-72
2022/06/28 06:07:58;;;;;;;9.70;3.15;;;15.50;99.90;;;;;;5033333;28;20053;-71
2022/06/28 06:10:24;;;;;;;9.65;2.83;;;15.50;99.90;;;;;;5033938;28;20463;-71
2022/06/28 06:12:49;;;;;;;8.40;3.17;;;15.50;99.90;;;;;;5041033;28;20086;-70
2022/06/28 06:15:15;;;;;;;10.05;3.00;;;15.60;99.90;;;;;;5049982;28;20032;-71
2022/06/28 06:17:41;;;;;;;6.18;3.15;;;15.60;99.90;;;;;;5059672;28;20036;-71
2022/06/28 06:20:08;;;;;;;6.93;3.22;;;15.70;99.90;;;;;;5073953;28;20020;-72
2022/06/28 06:22:34;;;;;;;9.93;3.35;;;15.70;99.90;;;;;;5074726;28;20107;-72
2022/06/28 06:25:00;;;;;;;9.65;2.42;;;15.70;99.90;;;;;;5074187;28;20547;-72
2022/06/28 06:27:26;;;;;;;7.80;2.22;;;15.80;99.90;;;;;;5069428;28;20033;-72
2022/06/28 06:29:52;;;;;;;7.82;2.35;;;15.90;99.90;;;;;;5044225;28;20021;-72
2022/06/28 06:32:18;;;;;;;11.18;2.40;;;15.90;99.90;;;;;;5045898;28;20424;-72
2022/06/28 06:34:43;;;;;;;5.18;2.15;;;15.90;99.90;;;;;;5044093;28;20469;-72
2022/06/28 06:37:09;;;;;;;10.65;1.75;;;15.90;99.90;;;;;;5043126;28;20033;-71
2022/06/28 06:39:35;;;;;;;8.65;1.92;;;16.10;99.90;;;;;;5046880;28;20018;-72
2022/06/28 06:42:01;;;;;;;7.22;1.67;;;16.10;99.90;;;;;;5034290;28;20120;-72
2022/06/28 06:44:26;;;;;;;8.50;2.17;;;16.20;99.90;;;;;;5037448;28;20366;-73
2022/06/28 06:46:52;;;;;;;8.07;1.80;;;16.40;99.90;;;;;;5041678;28;20571;-73
2022/06/28 06:49:18;;;;;;;10.48;1.90;;;16.50;99.90;;;;;;5043738;28;20105;-72
2022/06/28 06:51:44;;;;;;;8.02;1.55;;;16.70;99.90;;;;;;5042958;28;20485;-72
2022/06/28 06:54:11;;;;;;;5.65;1.70;;;16.90;99.90;;;;;;5046484;28;20017;-72
2022/06/28 06:56:38;;;;;;;7.85;1.70;;;17.00;99.90;;;;;;5042782;28;20026;-73
2022/06/28 06:59:04;;;;;;;4.05;1.42;;;17.10;99.90;;;;;;5045029;28;20021;-73
2022/06/28 07:01:33;;;;;;;9.45;2.10;;;17.50;99.90;;;;;;5042557;28;20458;-72
2022/06/28 07:03:58;;;;;;;6.00;1.85;;;17.50;99.90;;;;;;5043802;28;20009;-72
2022/06/28 07:06:24;;;;;;;4.20;1.20;;;17.70;99.90;;;;;;5042018;28;20021;-73
2022/06/28 07:08:50;;;;;;;6.88;1.65;;;17.70;99.90;;;;;;5046998;28;20140;-73
2022/06/28 07:11:15;;;;;;;4.32;1.35;;;17.60;99.90;;;;;;5043778;28;20429;-74
2022/06/28 07:13:41;;;;;;;6.63;1.30;;;17.80;99.90;;;;;;5045124;28;20026;-72
2022/06/28 07:16:07;;;;;;;7.20;1.63;;;17.90;99.90;;;;;;5042057;28;20441;-72
2022/06/28 07:18:33;;;;;;;4.68;1.50;;;17.90;99.90;;;;;;5048037;28;20029;-73
2022/06/28 07:20:59;;;;;;;8.60;2.00;;;18.00;99.90;;;;;;5052771;28;20013;-74
2022/06/28 07:23:24;;;;;;;5.25;1.35;;;18.00;99.90;;;;;;5053273;28;20370;-74
2022/06/28 07:25:51;;;;;;;7.55;1.50;;;18.10;99.90;;;;;;5053009;28;20106;-73
2022/06/28 07:28:16;;;;;;;7.47;1.50;;;18.30;99.90;;;;;;5047094;28;20056;-74
2022/06/28 07:30:42;;;;;;;3.95;1.05;;;18.60;99.90;;;;;;5056067;28;20024;-73
2022/06/28 07:33:09;;;;;;;5.00;1.45;;;18.80;99.90;;;;;;5043696;28;20021;-74
2022/06/28 07:35:35;;;;;;;4.30;1.20;;;18.90;99.90;;;;;;5042893;28;20032;-74
2022/06/28 07:38:01;;;;;;;2.90;1.10;;;19.00;99.90;;;;;;5034839;28;20037;-73
2022/06/28 07:40:27;;;;;;;3.50;1.42;;;19.00;99.90;;;;;;5036097;28;20459;-73
2022/06/28 07:42:52;;;;;;;5.43;1.20;;;19.10;99.90;;;;;;5042585;28;20055;-73
2022/06/28 07:45:18;;;;;;;5.18;1.30;;;19.40;99.90;;;;;;5052070;28;20473;-73
2022/06/28 07:47:47;;;;;;;6.43;1.40;;;19.40;99.90;;;;;;5038084;28;20434;-72
2022/06/28 07:53:03;;;;;;;8.43;1.73;;;19.70;99.90;;;;;;5048603;28;20040;-74
2022/06/28 07:55:29;;;;;;;2.58;0.77;;;19.80;99.90;;;;;;5050278;28;20060;-74
2022/06/28 07:57:55;;;;;;;8.38;1.65;;;19.90;99.90;;;;;;5044028;28;20029;-73
2022/06/28 08:00:21;;;;;;;2.90;0.90;;;20.00;99.90;;;;;;5049765;28;20543;-73
2022/06/28 08:02:47;;;;;;;3.60;1.10;;;20.30;99.90;;;;;;5050308;28;20021;-73
2022/06/28 08:05:14;;;;;;;7.32;1.58;;;20.40;99.90;;;;;;5052475;28;20456;-73
2022/06/28 08:07:40;;;;;;;1.65;0.90;;;20.60;99.90;;;;;;5052641;28;20075;-73
2022/06/28 08:10:07;;;;;;;1.50;0.82;;;20.80;99.90;;;;;;5022374;28;20029;-71
2022/06/28 08:12:33;;;;;;;2.63;0.98;;;21.00;99.90;;;;;;5035391;28;20029;-73
2022/06/28 08:14:58;;;;;;;3.20;0.90;;;21.20;99.90;;;;;;5042345;28;20021;-73
2022/06/28 08:17:24;;;;;;;3.85;1.15;;;21.30;99.90;;;;;;5046378;28;20079;-73
2022/06/28 08:19:50;;;;;;;3.25;0.63;;;21.40;99.90;;;;;;5043508;28;20096;-72
2022/06/28 08:22:16;;;;;;;2.33;0.93;;;21.50;99.90;;;;;;5046907;28;20049;-73
2022/06/28 08:24:42;;;;;;;2.22;0.90;;;21.50;99.90;;;;;;5045752;28;20040;-73
2022/06/28 08:27:08;;;;;;;3.83;1.00;;;21.60;99.90;;;;;;5043178;28;20025;-73
2022/06/28 08:29:34;;;;;;;3.92;1.10;;;21.60;99.90;;;;;;5042739;28;20029;-71
2022/06/28 08:32:00;;;;;;;2.58;0.95;;;21.60;99.90;;;;;;5043826;28;20017;-71
2022/06/28 08:34:26;;;;;;;3.25;0.90;;;21.60;99.90;;;;;;5049357;28;20025;-71
2022/06/28 08:36:52;;;;;;;2.53;0.90;;;21.70;99.90;;;;;;5045087;28;20059;-73
2022/06/28 08:39:18;;;;;;;5.13;1.27;;;21.90;99.90;;;;;;5048697;28;20017;-72
2022/06/28 08:41:46;;;;;;;2.22;0.70;;;22.00;99.90;;;;;;5045979;28;20029;-73
2022/06/28 08:44:14;;;;;;;3.75;0.90;;;21.90;99.90;;;;;;5045333;28;20087;-73
2022/06/28 08:46:40;;;;;;;1.45;0.63;;;22.00;99.90;;;;;;5039357;28;20064;-73
2022/06/28 08:49:18;;;;;;;1.50;0.75;;;22.20;99.90;;;;;;5061248;28;20107;-72
2022/06/28 08:51:44;;;;;;;4.50;0.68;;;22.40;98.50;;;;;;5063138;28;20032;-73
2022/06/28 08:54:12;;;;;;;2.08;0.65;;;22.40;99.90;;;;;;5068106;28;20032;-72
2022/06/28 08:56:38;;;;;;;2.67;0.70;;;22.60;99.00;;;;;;5055614;28;20055;-74
2022/06/28 08:59:06;;;;;;;1.38;0.80;;;22.80;99.90;;;;;;5057479;28;20032;-73
2022/06/28 09:01:31;;;;;;;5.75;0.95;;;22.60;99.90;;;;;;5060795;28;20013;-73
2022/06/28 09:04:00;;;;;;;2.47;0.73;;;22.70;99.90;;;;;;5068462;28;20039;-73
2022/06/28 09:06:25;;;;;;;1.80;0.60;;;22.90;99.60;;;;;;5058568;28;20021;-72
2022/06/28 09:08:51;;;;;;;2.58;0.80;;;22.90;98.60;;;;;;5063843;28;20043;-71
2022/06/28 09:11:17;;;;;;;4.15;0.70;;;23.10;99.90;;;;;;5061989;28;20025;-72
2022/06/28 09:13:43;;;;;;;2.80;0.60;;;23.20;97.40;;;;;;5057614;28;20043;-72
2022/06/28 09:16:09;;;;;;;3.20;0.70;;;23.20;98.60;;;;;;5068590;28;20024;-73
2022/06/28 09:18:34;;;;;;;3.50;0.90;;;23.40;98.40;;;;;;5056099;28;20029;-72
2022/06/28 09:21:01;;;;;;;2.00;0.60;;;23.10;98.10;;;;;;5068998;28;20469;-72
2022/06/28 09:23:33;;;;;;;1.80;0.80;;;23.40;98.40;;;;;;5063911;28;20060;-73
2022/06/28 09:26:11;;;;;;;2.70;0.85;;;23.40;99.40;;;;;;5061237;28;20021;-72
2022/06/28 09:28:44;;;;;;;5.13;0.82;;;23.60;98.80;;;;;;5056935;28;20037;-72
2022/06/28 09:31:14;;;;;;;5.50;1.63;;;23.70;99.00;;;;;;5067541;28;20536;-73
2022/06/28 09:33:45;;;;;;;2.42;0.70;;;23.50;98.50;;;;;;5063814;28;20476;-73
2022/06/28 09:36:12;;;;;;;3.22;1.00;;;23.40;99.10;;;;;;5069047;28;20037;-73
2022/06/28 09:38:38;;;;;;;3.20;0.93;;;23.60;98.80;;;;;;5048562;28;20071;-73
2022/06/28 09:41:03;;;;;;;2.72;0.60;;;23.70;99.00;;;;;;5052342;28;20025;-73
2022/06/28 09:43:34;;;;;;;3.63;0.70;;;23.70;99.10;;;;;;5051713;28;20366;-72
2022/06/28 09:46:04;;;;;;;2.78;0.98;;;23.80;99.90;;;;;;5063867;28;20047;-72
2022/06/28 09:48:38;;;;;;;2.90;0.70;;;23.70;99.40;;;;;;5062682;28;20243;-73
2022/06/28 09:51:04;;;;;;;2.90;0.68;;;23.70;99.10;;;;;;5068095;28;20024;-73
2022/06/28 09:53:32;;;;;;;1.63;0.55;;;23.90;99.90;;;;;;5054258;28;20056;-73
2022/06/28 09:56:01;;;;;;;3.20;0.60;;;24.20;96.70;;;;;;5065128;28;20119;-74
2022/06/28 09:58:27;;;;;;;2.47;0.90;;;24.40;97.30;;;;;;5057654;28;20559;-73
2022/06/28 10:00:54;;;;;;;2.58;0.90;;;24.40;98.10;;;;;;5062175;28;20021;-72
2022/06/28 10:03:19;;;;;;;2.47;0.77;;;24.20;97.40;;;;;;5051164;28;20032;-72
2022/06/28 10:05:46;;;;;;;1.38;0.68;;;24.40;98.40;;;;;;5062575;28;20036;-73
2022/06/28 10:08:12;;;;;;;1.73;0.85;;;24.20;97.00;;;;;;5068312;28;20550;-73
2022/06/28 10:10:40;;;;;;;3.42;0.93;;;24.10;98.90;;;;;;5058548;28;20021;-73
2022/06/28 10:16:19;;;;;;;3.75;1.05;;;24.60;98.40;;;;;;5064998;28;20102;-72
2022/06/28 10:18:46;;;;;;;3.38;0.80;;;24.50;96.40;;;;;;5054900;28;20111;-72
2022/06/28 10:21:12;;;;;;;3.58;1.00;;;24.50;97.80;;;;;;5065834;28;20075;-73
2022/06/28 10:23:40;;;;;;;1.73;0.80;;;24.30;98.80;;;;;;5064435;28;20052;-73
2022/06/28 10:26:18;;;;;;;2.10;0.75;;;24.50;97.90;;;;;;5059168;28;20028;-70
2022/06/28 10:29:02;;;;;;;5.13;0.90;;;24.70;98.10;;;;;;5070040;28;20029;-70
2022/06/28 10:31:29;;;;;;;2.78;0.88;;;24.80;99.90;;;;;;5049988;28;20493;-71
2022/06/28 10:34:03;;;;;;;3.13;1.00;;;24.90;97.50;;;;;;5056387;28;20280;-70
2022/06/28 10:36:40;;;;;;;3.30;0.90;;;24.90;98.80;;;;;;5047022;28;20021;-70
2022/06/28 10:39:09;;;;;;;1.60;0.70;;;24.90;96.00;;;;;;5055927;28;20100;-70
2022/06/28 10:41:45;;;;;;;2.17;0.80;;;24.90;96.50;;;;;;5048785;28;20029;-70
2022/06/28 10:44:19;;;;;;;3.15;0.80;;;24.90;96.70;;;;;;5050625;28;20463;-70
2022/06/28 10:47:12;;;;;;;4.65;1.15;;;25.10;96.90;;;;;;5069278;28;20384;-70
2022/06/28 10:49:51;;;;;;;2.97;1.10;;;25.00;97.00;;;;;;5052672;28;20040;-71
2022/06/28 10:52:17;;;;;;;4.55;0.90;;;25.30;96.40;;;;;;5056314;28;20470;-70
2022/06/28 10:55:18;;;;;;;3.10;1.10;;;25.60;97.30;;;;;;5056634;28;20024;-71
2022/06/28 10:57:45;;;;;;;3.40;1.17;;;25.50;96.40;;;;;;5053250;28;20024;-71
2022/06/28 11:00:20;;;;;;;4.55;1.05;;;25.30;96.50;;;;;;5057651;28;20025;-70
2022/06/28 11:02:49;;;;;;;3.47;1.00;;;25.20;97.50;;;;;;5061744;28;20047;-71
2022/06/28 11:05:16;;;;;;;4.15;0.93;;;25.50;96.00;;;;;;5071975;28;20028;-70
2022/06/28 11:07:56;;;;;;;2.55;0.88;;;25.70;97.20;;;;;;5056887;28;20064;-70
2022/06/28 11:10:21;;;;;;;1.80;0.65;;;25.40;94.00;;;;;;5044231;28;20021;-70
2022/06/28 11:12:47;;;;;;;5.65;1.02;;;25.60;95.40;;;;;;5067876;28;20029;-71
2022/06/28 11:15:35;;;;;;;1.77;0.95;;;25.40;96.50;;;;;;5057652;28;20047;-70
2022/06/28 11:18:01;;;;;;;2.75;0.90;;;25.50;97.50;;;;;;5058838;28;20029;-70
2022/06/28 11:20:30;;;;;;;3.58;1.05;;;24.90;96.30;;;;;;5053245;28;20535;-70
2022/06/28 11:22:56;;;;;;;3.58;0.98;;;25.30;97.80;;;;;;5062060;28;20103;-70
2022/06/28 11:25:24;;;;;;;5.25;1.73;;;25.60;96.80;;;;;;5064010;28;20082;-70
2022/06/28 11:27:52;;;;;;;1.63;0.80;;;25.50;96.90;;;;;;5064104;28;20036;-70
2022/06/28 11:30:19;;;;;;;2.95;0.85;;;25.90;98.50;;;;;;5048485;28;20020;-70
2022/06/28 11:32:48;;;;;;;8.48;1.50;;;26.10;96.60;;;;;;5061225;28;20028;-71
2022/06/28 11:35:20;;;;;;;3.13;0.90;;;26.30;96.00;;;;;;5047979;28;20068;-70
2022/06/28 11:37:57;;;;;;;1.08;0.98;;;26.40;96.40;;;;;;5053225;28;20036;-71
2022/06/28 11:40:44;;;;;;;4.30;1.00;;;26.30;93.90;;;;;;5050604;28;20436;-70
2022/06/28 11:43:12;;;;;;;2.08;1.00;;;26.20;93.80;;;;;;5058394;28;20533;-70
2022/06/28 11:45:41;;;;;;;2.58;0.70;;;25.70;94.30;;;;;;5056784;28;20123;-70
2022/06/28 11:48:14;;;;;;;3.22;0.90;;;25.70;93.40;;;;;;5051707;28;20033;-71
2022/06/28 11:50:41;;;;;;;3.58;1.10;;;26.10;94.50;;;;;;5068410;28;20401;-69
2022/06/28 11:53:07;;;;;;;1.60;0.75;;;26.40;94.10;;;;;;5057300;28;20024;-71
2022/06/28 11:55:38;;;;;;;5.82;1.17;;;26.60;94.90;;;;;;5046732;28;20030;-70
2022/06/28 11:58:25;;;;;;;8.20;1.45;;;26.60;92.10;;;;;;5048695;28;20025;-71
2022/06/28 12:01:18;;;;;;;4.30;1.05;;;26.40;96.20;;;;;;5045440;28;20035;-70
2022/06/28 12:03:43;;;;;;;5.28;0.88;;;26.50;95.50;;;;;;5041788;28;20017;-71
2022/06/28 12:06:22;;;;;;;3.95;0.90;;;26.30;93.50;;;;;;5044189;28;20058;-71
2022/06/28 12:08:49;;;;;;;5.95;0.90;;;26.40;92.10;;;;;;5045763;28;20033;-71
2022/06/28 12:11:42;;;;;;;3.78;1.02;;;26.30;92.30;;;;;;5044352;28;20025;-71
2022/06/28 12:14:19;;;;;;;3.38;0.90;;;26.30;93.40;;;;;;5041771;28;20013;-71
2022/06/28 12:16:50;;;;;;;4.60;1.23;;;26.00;95.10;;;;;;5044503;28;20132;-73
2022/06/28 12:19:21;;;;;;;3.17;1.30;;;26.20;97.00;;;;;;5041209;28;20736;-72
2022/06/28 12:22:02;;;;;;;3.08;0.98;;;26.40;95.90;;;;;;5039301;28;20429;-73
2022/06/28 12:24:55;;;;;;;3.97;1.33;;;26.60;93.50;;;;;;5040769;28;20481;-74
2022/06/28 12:27:34;;;;;;;2.72;0.90;;;26.80;94.70;;;;;;5045949;28;20363;-74
2022/06/28 12:30:00;;;;;;;5.85;1.20;;;26.50;95.40;;;;;;5039379;28;20078;-74
2022/06/28 12:32:28;;;;;;;5.00;1.02;;;26.80;95.70;;;;;;5046354;28;20406;-72
2022/06/28 12:35:05;;;;;;;1.73;0.93;;;26.70;95.00;;;;;;5045269;28;20448;-73
2022/06/28 12:37:32;;;;;;;2.75;0.95;;;26.90;93.60;;;;;;5051902;28;20028;-72
2022/06/28 12:39:58;;;;;;;4.38;0.95;;;26.80;93.70;;;;;;5050278;28;20095;-73
2022/06/28 12:42:26;;;;;;;4.22;1.15;;;26.90;93.30;;;;;;5047499;28;20126;-73
2022/06/28 12:44:52;;;;;;;1.92;0.98;;;27.00;94.90;;;;;;5048043;28;20037;-73
2022/06/28 12:47:18;;;;;;;2.65;1.00;;;27.20;94.20;;;;;;5051569;28;20493;-73
2022/06/28 12:49:44;;;;;;;3.67;1.10;;;27.10;93.20;;;;;;5052167;28;20674;-73
2022/06/28 12:52:09;;;;;;;4.30;1.45;;;27.00;92.40;;;;;;5046892;28;20032;-74
2022/06/28 12:54:35;;;;;;;3.35;0.95;;;27.00;92.50;;;;;;5056291;28;20025;-72
2022/06/28 12:57:01;;;;;;;8.35;1.30;;;26.80;92.20;;;;;;5050837;28;20111;-73
2022/06/28 12:59:26;;;;;;;2.95;0.95;;;26.90;94.20;;;;;;5054118;28;20021;-73
2022/06/28 13:01:52;;;;;;;3.38;1.00;;;26.80;93.00;;;;;;5057464;28;20492;-73